sensor_id;sensor_type;location;lat;lon;timestamp;pressure;altitude;pressure_sealevel;temperature;humidity
51067;BME280;37112;45.892;-123.962;2023-02-21T00:00:49;102009.92;;;8.59;100.00
51067;BME280;37112;45.892;-123.962;2023-02-21T00:03:19;101984.60;;;8.59;100.00
51067;BME280;37112;45.892;-123.962;2023-02-21T00:05:48;101957.38;;;8.58;100.00
51067;BME280;37112;45.892;-123.962;2023-02-21T00:08:18;101954.00;;;8.59;100.00
51067;BME280;37112;45.892;-123.962;2023-02-21T00:10:48;101940.92;;;8.58;100.00
51067;BME280;37112;45.892;-123.962;2023-02-21T00:13:17;101932.61;;;8.57;100.00
51067;BME280;37112;45.892;-123.962;2023-02-21T00:15:46;101915.10;;;8.57;100.00
51067;BME280;37112;45.892;-123.962;2023-02-21T00:18:16;101923.48;;;8.55;100.00
51067;BME280;37112;45.892;-123.962;2023-02-21T00:20:45;101916.59;;;8.55;100.00
51067;BME280;37112;45.892;-123.962;2023-02-21T00:23:15;101906.65;;;8.55;100.00
51067;BME280;37112;45.892;-123.962;2023-02-21T00:25:44;101906.30;;;8.56;100.00
51067;BME280;37112;45.892;-123.962;2023-02-21T00:28:14;101914.22;;;8.57;100.00
51067;BME280;37112;45.892;-123.962;2023-02-21T00:30:45;101931.95;;;8.56;100.00
51067;BME280;37112;45.892;-123.962;2023-02-21T00:33:15;101926.65;;;8.56;100.00
51067;BME280;37112;45.892;-123.962;2023-02-21T00:35:45;101933.41;;;8.55;100.00
51067;BME280;37112;45.892;-123.962;2023-02-21T00:38:16;101943.14;;;8.55;100.00
51067;BME280;37112;45.892;-123.962;2023-02-21T00:40:46;101944.75;;;8.54;100.00
51067;BME280;37112;45.892;-123.962;2023-02-21T00:43:19;101929.14;;;8.55;100.00
51067;BME280;37112;45.892;-123.962;2023-02-21T00:45:49;101925.23;;;8.56;100.00
51067;BME280;37112;45.892;-123.962;2023-02-21T00:48:23;101930.54;;;8.56;100.00
51067;BME280;37112;45.892;-123.962;2023-02-21T00:50:53;101931.48;;;8.54;100.00
51067;BME280;37112;45.892;-123.962;2023-02-21T00:53:25;101927.34;;;8.52;100.00
51067;BME280;37112;45.892;-123.962;2023-02-21T00:55:55;101914.48;;;8.51;100.00
51067;BME280;37112;45.892;-123.962;2023-02-21T00:58:25;101901.98;;;8.49;100.00
51067;BME280;37112;45.892;-123.962;2023-02-21T01:00:55;101893.77;;;8.50;100.00
51067;BME280;37112;45.892;-123.962;2023-02-21T01:03:26;101887.09;;;8.50;100.00
51067;BME280;37112;45.892;-123.962;2023-02-21T01:05:57;101882.34;;;8.49;100.00
51067;BME280;37112;45.892;-123.962;2023-02-21T01:08:27;101879.48;;;8.49;100.00
51067;BME280;37112;45.892;-123.962;2023-02-21T01:10:57;101879.11;;;8.50;100.00
51067;BME280;37112;45.892;-123.962;2023-02-21T01:13:27;101876.52;;;8.49;100.00
51067;BME280;37112;45.892;-123.962;2023-02-21T01:15:58;101867.66;;;8.48;100.00
51067;BME280;37112;45.892;-123.962;2023-02-21T01:18:28;101859.08;;;8.46;100.00
51067;BME280;37112;45.892;-123.962;2023-02-21T01:20:57;101833.30;;;8.44;100.00
51067;BME280;37112;45.892;-123.962;2023-02-21T01:23:28;101804.55;;;8.42;100.00
51067;BME280;37112;45.892;-123.962;2023-02-21T01:25:58;101800.55;;;8.41;100.00
51067;BME280;37112;45.892;-123.962;2023-02-21T01:28:29;101801.09;;;8.40;100.00
51067;BME280;37112;45.892;-123.962;2023-02-21T01:30:59;101807.10;;;8.40;100.00
51067;BME280;37112;45.892;-123.962;2023-02-21T01:33:28;101805.47;;;8.42;100.00
51067;BME280;37112;45.892;-123.962;2023-02-21T01:36:02;101803.13;;;8.42;100.00
51067;BME280;37112;45.892;-123.962;2023-02-21T01:38:34;101784.52;;;8.43;100.00
51067;BME280;37112;45.892;-123.962;2023-02-21T01:41:04;101772.64;;;8.44;100.00
51067;BME280;37112;45.892;-123.962;2023-02-21T01:43:35;101769.65;;;8.43;100.00
51067;BME280;37112;45.892;-123.962;2023-02-21T01:46:04;101778.81;;;8.44;100.00
51067;BME280;37112;45.892;-123.962;2023-02-21T01:48:35;101790.48;;;8.44;100.00
51067;BME280;37112;45.892;-123.962;2023-02-21T01:51:07;101803.20;;;8.45;100.00
51067;BME280;37112;45.892;-123.962;2023-02-21T01:53:37;101825.08;;;8.43;100.00
51067;BME280;37112;45.892;-123.962;2023-02-21T01:56:10;101829.40;;;8.40;100.00
51067;BME280;37112;45.892;-123.962;2023-02-21T01:58:41;101840.24;;;8.39;100.00
51067;BME280;37112;45.892;-123.962;2023-02-21T02:01:14;101841.33;;;8.38;100.00
51067;BME280;37112;45.892;-123.962;2023-02-21T02:03:48;101847.38;;;8.38;100.00
51067;BME280;37112;45.892;-123.962;2023-02-21T02:06:19;101846.07;;;8.35;100.00
51067;BME280;37112;45.892;-123.962;2023-02-21T02:08:48;101845.56;;;8.34;100.00
51067;BME280;37112;45.892;-123.962;2023-02-21T02:11:29;101825.94;;;8.33;100.00
51067;BME280;37112;45.892;-123.962;2023-02-21T02:14:22;101811.09;;;8.33;100.00
51067;BME280;37112;45.892;-123.962;2023-02-21T02:16:44;101804.70;;;8.33;100.00
51067;BME280;37112;45.892;-123.962;2023-02-21T02:19:27;101795.12;;;8.34;100.00
51067;BME280;37112;45.892;-123.962;2023-02-21T02:22:16;101785.58;;;8.34;100.00
51067;BME280;37112;45.892;-123.962;2023-02-21T02:24:42;101792.61;;;8.35;100.00
51067;BME280;37112;45.892;-123.962;2023-02-21T02:30:02;101777.77;;;8.35;100.00
51067;BME280;37112;45.892;-123.962;2023-02-21T02:32:41;101769.10;;;8.34;100.00
51067;BME280;37112;45.892;-123.962;2023-02-21T02:35:15;101764.69;;;8.34;100.00
51067;BME280;37112;45.892;-123.962;2023-02-21T02:37:44;101761.73;;;8.33;100.00
51067;BME280;37112;45.892;-123.962;2023-02-21T02:40:13;101760.13;;;8.32;100.00
51067;BME280;37112;45.892;-123.962;2023-02-21T02:42:47;101764.91;;;8.33;100.00
51067;BME280;37112;45.892;-123.962;2023-02-21T02:45:17;101746.69;;;8.32;100.00
51067;BME280;37112;45.892;-123.962;2023-02-21T02:47:38;101744.56;;;8.33;100.00
51067;BME280;37112;45.892;-123.962;2023-02-21T02:49:53;101729.69;;;8.33;100.00
51067;BME280;37112;45.892;-123.962;2023-02-21T02:52:14;101725.76;;;8.34;100.00
51067;BME280;37112;45.892;-123.962;2023-02-21T02:54:28;101728.73;;;8.35;100.00
51067;BME280;37112;45.892;-123.962;2023-02-21T02:56:48;101734.05;;;8.35;100.00
51067;BME280;37112;45.892;-123.962;2023-02-21T02:59:06;101741.84;;;8.35;100.00
51067;BME280;37112;45.892;-123.962;2023-02-21T03:01:46;101736.90;;;8.34;100.00
51067;BME280;37112;45.892;-123.962;2023-02-21T03:06:53;101715.89;;;8.32;100.00
51067;BME280;37112;45.892;-123.962;2023-02-21T03:09:17;101713.06;;;8.33;100.00
51067;BME280;37112;45.892;-123.962;2023-02-21T03:11:45;101712.89;;;8.32;100.00
51067;BME280;37112;45.892;-123.962;2023-02-21T03:14:12;101712.91;;;8.32;100.00
51067;BME280;37112;45.892;-123.962;2023-02-21T03:16:39;101701.91;;;8.32;100.00
51067;BME280;37112;45.892;-123.962;2023-02-21T03:18:58;101696.08;;;8.32;100.00
51067;BME280;37112;45.892;-123.962;2023-02-21T03:21:19;101688.09;;;8.33;100.00
51067;BME280;37112;45.892;-123.962;2023-02-21T03:23:36;101682.23;;;8.34;100.00
51067;BME280;37112;45.892;-123.962;2023-02-21T03:25:55;101665.48;;;8.37;100.00
51067;BME280;37112;45.892;-123.962;2023-02-21T03:28:13;101639.59;;;8.38;100.00
51067;BME280;37112;45.892;-123.962;2023-02-21T03:30:29;101635.27;;;8.40;100.00
51067;BME280;37112;45.892;-123.962;2023-02-21T03:32:46;101639.85;;;8.41;100.00
51067;BME280;37112;45.892;-123.962;2023-02-21T03:35:05;101648.84;;;8.42;100.00
51067;BME280;37112;45.892;-123.962;2023-02-21T03:37:28;101641.52;;;8.43;100.00
51067;BME280;37112;45.892;-123.962;2023-02-21T03:39:44;101628.73;;;8.44;100.00
51067;BME280;37112;45.892;-123.962;2023-02-21T03:42:00;101627.21;;;8.46;100.00
51067;BME280;37112;45.892;-123.962;2023-02-21T03:44:18;101622.54;;;8.48;100.00
51067;BME280;37112;45.892;-123.962;2023-02-21T03:46:37;101619.47;;;8.49;100.00
51067;BME280;37112;45.892;-123.962;2023-02-21T03:48:51;101625.42;;;8.51;100.00
51067;BME280;37112;45.892;-123.962;2023-02-21T03:51:10;101621.51;;;8.51;100.00
51067;BME280;37112;45.892;-123.962;2023-02-21T03:53:27;101608.23;;;8.51;100.00
51067;BME280;37112;45.892;-123.962;2023-02-21T03:56:01;101609.06;;;8.52;100.00
51067;BME280;37112;45.892;-123.962;2023-02-21T03:58:28;101601.42;;;8.53;100.00
51067;BME280;37112;45.892;-123.962;2023-02-21T04:00:53;101592.40;;;8.53;100.00
51067;BME280;37112;45.892;-123.962;2023-02-21T04:03:18;101601.23;;;8.53;100.00
51067;BME280;37112;45.892;-123.962;2023-02-21T04:05:44;101603.17;;;8.53;100.00
51067;BME280;37112;45.892;-123.962;2023-02-21T04:07:59;101598.70;;;8.54;100.00
51067;BME280;37112;45.892;-123.962;2023-02-21T04:10:15;101586.45;;;8.55;100.00
51067;BME280;37112;45.892;-123.962;2023-02-21T04:12:33;101592.43;;;8.56;100.00
51067;BME280;37112;45.892;-123.962;2023-02-21T04:14:51;101583.05;;;8.56;100.00
51067;BME280;37112;45.892;-123.962;2023-02-21T04:17:10;101572.95;;;8.56;100.00
51067;BME280;37112;45.892;-123.962;2023-02-21T04:19:31;101566.39;;;8.57;100.00
51067;BME280;37112;45.892;-123.962;2023-02-21T04:21:48;101559.63;;;8.57;100.00
51067;BME280;37112;45.892;-123.962;2023-02-21T04:24:10;101552.84;;;8.58;100.00
51067;BME280;37112;45.892;-123.962;2023-02-21T04:26:34;101560.39;;;8.60;100.00
51067;BME280;37112;45.892;-123.962;2023-02-21T04:28:54;101553.67;;;8.59;100.00
51067;BME280;37112;45.892;-123.962;2023-02-21T04:31:21;101537.52;;;8.60;100.00
51067;BME280;37112;45.892;-123.962;2023-02-21T04:33:40;101534.83;;;8.61;100.00
51067;BME280;37112;45.892;-123.962;2023-02-21T04:35:58;101529.30;;;8.62;100.00
51067;BME280;37112;45.892;-123.962;2023-02-21T04:38:26;101526.44;;;8.62;100.00
51067;BME280;37112;45.892;-123.962;2023-02-21T04:40:42;101518.07;;;8.63;100.00
51067;BME280;37112;45.892;-123.962;2023-02-21T04:43:02;101518.73;;;8.65;100.00
51067;BME280;37112;45.892;-123.962;2023-02-21T04:45:18;101515.30;;;8.67;100.00
51067;BME280;37112;45.892;-123.962;2023-02-21T04:47:47;101503.17;;;8.68;100.00
51067;BME280;37112;45.892;-123.962;2023-02-21T04:50:09;101497.79;;;8.70;100.00
51067;BME280;37112;45.892;-123.962;2023-02-21T04:52:29;101495.25;;;8.71;100.00
51067;BME280;37112;45.892;-123.962;2023-02-21T04:54:45;101494.52;;;8.71;100.00
51067;BME280;37112;45.892;-123.962;2023-02-21T04:57:00;101492.00;;;8.73;100.00
51067;BME280;37112;45.892;-123.962;2023-02-21T04:59:32;101496.06;;;8.73;100.00
51067;BME280;37112;45.892;-123.962;2023-02-21T05:01:48;101492.98;;;8.70;100.00
51067;BME280;37112;45.892;-123.962;2023-02-21T05:04:15;101472.11;;;8.66;100.00
51067;BME280;37112;45.892;-123.962;2023-02-21T05:06:32;101470.67;;;8.63;100.00
51067;BME280;37112;45.892;-123.962;2023-02-21T05:08:46;101473.29;;;8.60;100.00
51067;BME280;37112;45.892;-123.962;2023-02-21T05:11:08;101473.75;;;8.58;100.00
51067;BME280;37112;45.892;-123.962;2023-02-21T05:13:22;101472.14;;;8.58;100.00
51067;BME280;37112;45.892;-123.962;2023-02-21T05:15:36;101470.03;;;8.58;100.00
51067;BME280;37112;45.892;-123.962;2023-02-21T05:17:53;101469.75;;;8.56;100.00
51067;BME280;37112;45.892;-123.962;2023-02-21T05:20:13;101471.56;;;8.55;100.00
51067;BME280;37112;45.892;-123.962;2023-02-21T05:22:28;101472.70;;;8.53;100.00
51067;BME280;37112;45.892;-123.962;2023-02-21T05:24:51;101486.17;;;8.50;100.00
51067;BME280;37112;45.892;-123.962;2023-02-21T05:27:10;101503.38;;;8.37;100.00
51067;BME280;37112;45.892;-123.962;2023-02-21T05:29:30;101510.89;;;8.23;100.00
51067;BME280;37112;45.892;-123.962;2023-02-21T05:31:52;101507.67;;;8.12;100.00
51067;BME280;37112;45.892;-123.962;2023-02-21T05:34:05;101504.84;;;8.04;100.00
51067;BME280;37112;45.892;-123.962;2023-02-21T05:36:24;101503.95;;;8.00;100.00
51067;BME280;37112;45.892;-123.962;2023-02-21T05:38:54;101507.94;;;7.98;100.00
51067;BME280;37112;45.892;-123.962;2023-02-21T05:41:13;101509.65;;;7.99;100.00
51067;BME280;37112;45.892;-123.962;2023-02-21T05:43:31;101503.30;;;7.99;100.00
51067;BME280;37112;45.892;-123.962;2023-02-21T05:45:48;101501.83;;;8.00;100.00
51067;BME280;37112;45.892;-123.962;2023-02-21T05:48:01;101503.02;;;8.01;100.00
51067;BME280;37112;45.892;-123.962;2023-02-21T05:50:15;101493.30;;;8.01;100.00
51067;BME280;37112;45.892;-123.962;2023-02-21T05:52:32;101481.74;;;7.98;100.00
51067;BME280;37112;45.892;-123.962;2023-02-21T05:54:48;101477.70;;;7.94;100.00
51067;BME280;37112;45.892;-123.962;2023-02-21T05:57:07;101468.02;;;7.93;100.00
51067;BME280;37112;45.892;-123.962;2023-02-21T05:59:22;101463.19;;;7.95;100.00
51067;BME280;37112;45.892;-123.962;2023-02-21T06:01:35;101479.06;;;7.95;100.00
51067;BME280;37112;45.892;-123.962;2023-02-21T06:03:52;101483.56;;;7.89;100.00
51067;BME280;37112;45.892;-123.962;2023-02-21T06:06:08;101487.20;;;7.83;100.00
51067;BME280;37112;45.892;-123.962;2023-02-21T06:08:23;101489.33;;;7.79;100.00
51067;BME280;37112;45.892;-123.962;2023-02-21T06:10:49;101496.36;;;7.75;100.00
51067;BME280;37112;45.892;-123.962;2023-02-21T06:13:09;101498.77;;;7.69;100.00
51067;BME280;37112;45.892;-123.962;2023-02-21T06:15:27;101499.77;;;7.62;100.00
51067;BME280;37112;45.892;-123.962;2023-02-21T06:17:44;101494.90;;;7.60;100.00
51067;BME280;37112;45.892;-123.962;2023-02-21T06:20:05;101498.00;;;7.59;100.00
51067;BME280;37112;45.892;-123.962;2023-02-21T06:22:26;101502.18;;;7.56;100.00
51067;BME280;37112;45.892;-123.962;2023-02-21T06:24:42;101502.77;;;7.54;100.00
51067;BME280;37112;45.892;-123.962;2023-02-21T06:27:00;101511.81;;;7.49;100.00
51067;BME280;37112;45.892;-123.962;2023-02-21T06:29:19;101509.25;;;7.43;100.00
51067;BME280;37112;45.892;-123.962;2023-02-21T06:31:32;101495.63;;;7.39;100.00
51067;BME280;37112;45.892;-123.962;2023-02-21T06:33:46;101491.64;;;7.37;100.00
51067;BME280;37112;45.892;-123.962;2023-02-21T06:36:05;101491.60;;;7.38;100.00
51067;BME280;37112;45.892;-123.962;2023-02-21T06:38:19;101487.10;;;7.40;100.00
51067;BME280;37112;45.892;-123.962;2023-02-21T06:40:33;101493.06;;;7.45;100.00
51067;BME280;37112;45.892;-123.962;2023-02-21T06:42:46;101498.21;;;7.45;100.00
51067;BME280;37112;45.892;-123.962;2023-02-21T06:44:59;101499.55;;;7.38;100.00
51067;BME280;37112;45.892;-123.962;2023-02-21T06:47:12;101504.54;;;7.37;100.00
51067;BME280;37112;45.892;-123.962;2023-02-21T06:49:27;101505.79;;;7.33;100.00
51067;BME280;37112;45.892;-123.962;2023-02-21T06:51:42;101511.15;;;7.31;100.00
51067;BME280;37112;45.892;-123.962;2023-02-21T06:53:56;101504.74;;;7.28;100.00
51067;BME280;37112;45.892;-123.962;2023-02-21T06:56:10;101496.36;;;7.26;100.00
51067;BME280;37112;45.892;-123.962;2023-02-21T06:58:24;101488.30;;;7.19;99.65
51067;BME280;37112;45.892;-123.962;2023-02-21T07:00:37;101492.06;;;7.10;98.49
51067;BME280;37112;45.892;-123.962;2023-02-21T07:02:51;101500.43;;;7.08;98.66
51067;BME280;37112;45.892;-123.962;2023-02-21T07:05:05;101508.23;;;7.07;97.81
51067;BME280;37112;45.892;-123.962;2023-02-21T07:07:18;101507.33;;;7.08;96.29
51067;BME280;37112;45.892;-123.962;2023-02-21T07:09:32;101501.61;;;7.10;95.85
51067;BME280;37112;45.892;-123.962;2023-02-21T07:11:46;101495.02;;;7.11;95.44
51067;BME280;37112;45.892;-123.962;2023-02-21T07:13:59;101492.68;;;7.16;96.84
51067;BME280;37112;45.892;-123.962;2023-02-21T07:16:14;101483.84;;;7.21;97.55
51067;BME280;37112;45.892;-123.962;2023-02-21T07:18:27;101475.27;;;7.23;97.59
51067;BME280;37112;45.892;-123.962;2023-02-21T07:20:40;101477.05;;;7.23;96.75
51067;BME280;37112;45.892;-123.962;2023-02-21T07:22:55;101474.80;;;7.26;96.48
51067;BME280;37112;45.892;-123.962;2023-02-21T07:25:11;101476.69;;;7.27;95.19
51067;BME280;37112;45.892;-123.962;2023-02-21T07:27:25;101481.71;;;7.29;95.16
51067;BME280;37112;45.892;-123.962;2023-02-21T07:29:42;101487.40;;;7.29;95.76
51067;BME280;37112;45.892;-123.962;2023-02-21T07:31:55;101492.98;;;7.22;94.90
51067;BME280;37112;45.892;-123.962;2023-02-21T07:34:08;101492.13;;;7.13;95.04
51067;BME280;37112;45.892;-123.962;2023-02-21T07:36:21;101474.84;;;7.08;95.81
51067;BME280;37112;45.892;-123.962;2023-02-21T07:38:35;101464.36;;;7.05;96.62
51067;BME280;37112;45.892;-123.962;2023-02-21T07:40:48;101462.91;;;7.02;96.71
51067;BME280;37112;45.892;-123.962;2023-02-21T07:43:02;101452.61;;;6.99;96.73
51067;BME280;37112;45.892;-123.962;2023-02-21T07:45:16;101450.55;;;6.93;96.46
51067;BME280;37112;45.892;-123.962;2023-02-21T07:47:29;101440.71;;;6.91;97.04
51067;BME280;37112;45.892;-123.962;2023-02-21T07:49:43;101442.45;;;6.92;97.61
51067;BME280;37112;45.892;-123.962;2023-02-21T07:51:56;101446.46;;;6.94;97.93
51067;BME280;37112;45.892;-123.962;2023-02-21T07:54:10;101443.31;;;6.93;95.62
51067;BME280;37112;45.892;-123.962;2023-02-21T07:56:23;101448.47;;;6.92;94.66
51067;BME280;37112;45.892;-123.962;2023-02-21T07:58:36;101453.23;;;6.92;94.13
51067;BME280;37112;45.892;-123.962;2023-02-21T08:00:49;101481.48;;;6.91;93.69
51067;BME280;37112;45.892;-123.962;2023-02-21T08:03:05;101481.10;;;6.84;92.88
51067;BME280;37112;45.892;-123.962;2023-02-21T08:05:20;101473.34;;;6.71;93.17
51067;BME280;37112;45.892;-123.962;2023-02-21T08:07:34;101471.69;;;6.63;93.85
51067;BME280;37112;45.892;-123.962;2023-02-21T08:09:47;101462.95;;;6.57;92.43
51067;BME280;37112;45.892;-123.962;2023-02-21T08:12:01;101451.55;;;6.46;91.95
51067;BME280;37112;45.892;-123.962;2023-02-21T08:14:15;101441.85;;;6.41;91.91
51067;BME280;37112;45.892;-123.962;2023-02-21T08:16:28;101433.64;;;6.39;92.84
51067;BME280;37112;45.892;-123.962;2023-02-21T08:18:45;101428.15;;;6.40;92.80
51067;BME280;37112;45.892;-123.962;2023-02-21T08:21:00;101437.36;;;6.43;92.92
51067;BME280;37112;45.892;-123.962;2023-02-21T08:23:14;101438.17;;;6.49;93.39
51067;BME280;37112;45.892;-123.962;2023-02-21T08:25:28;101438.73;;;6.57;93.86
51067;BME280;37112;45.892;-123.962;2023-02-21T08:27:43;101427.80;;;6.62;93.80
51067;BME280;37112;45.892;-123.962;2023-02-21T08:29:56;101424.08;;;6.66;93.97
51067;BME280;37112;45.892;-123.962;2023-02-21T08:32:09;101413.57;;;6.69;93.74
51067;BME280;37112;45.892;-123.962;2023-02-21T08:34:22;101424.94;;;6.72;93.93
51067;BME280;37112;45.892;-123.962;2023-02-21T08:36:40;101465.54;;;6.76;93.87
51067;BME280;37112;45.892;-123.962;2023-02-21T08:38:54;101454.30;;;6.61;90.77
51067;BME280;37112;45.892;-123.962;2023-02-21T08:41:07;101428.32;;;6.44;91.20
51067;BME280;37112;45.892;-123.962;2023-02-21T08:43:22;101425.02;;;6.34;91.54
51067;BME280;37112;45.892;-123.962;2023-02-21T08:45:35;101424.45;;;6.31;92.62
51067;BME280;37112;45.892;-123.962;2023-02-21T08:47:48;101420.23;;;6.30;93.14
51067;BME280;37112;45.892;-123.962;2023-02-21T08:50:02;101425.36;;;6.29;93.22
51067;BME280;37112;45.892;-123.962;2023-02-21T08:52:16;101441.45;;;6.28;92.39
51067;BME280;37112;45.892;-123.962;2023-02-21T08:54:31;101441.34;;;6.27;91.22
51067;BME280;37112;45.892;-123.962;2023-02-21T08:56:44;101427.86;;;6.28;91.87
51067;BME280;37112;45.892;-123.962;2023-02-21T08:58:58;101421.38;;;6.27;90.54
51067;BME280;37112;45.892;-123.962;2023-02-21T09:01:11;101423.43;;;6.29;91.14
51067;BME280;37112;45.892;-123.962;2023-02-21T09:03:25;101417.29;;;6.33;91.51
51067;BME280;37112;45.892;-123.962;2023-02-21T09:05:39;101413.61;;;6.32;90.48
51067;BME280;37112;45.892;-123.962;2023-02-21T09:07:53;101403.80;;;6.35;91.26
51067;BME280;37112;45.892;-123.962;2023-02-21T09:10:10;101396.26;;;6.39;91.66
51067;BME280;37112;45.892;-123.962;2023-02-21T09:12:24;101391.64;;;6.43;92.05
51067;BME280;37112;45.892;-123.962;2023-02-21T09:14:38;101392.02;;;6.48;92.21
51067;BME280;37112;45.892;-123.962;2023-02-21T09:16:52;101382.30;;;6.53;92.45
51067;BME280;37112;45.892;-123.962;2023-02-21T09:19:07;101380.65;;;6.58;92.69
51067;BME280;37112;45.892;-123.962;2023-02-21T09:21:23;101380.25;;;6.64;92.87
51067;BME280;37112;45.892;-123.962;2023-02-21T09:23:36;101382.50;;;6.70;92.97
51067;BME280;37112;45.892;-123.962;2023-02-21T09:25:50;101382.27;;;6.75;93.26
51067;BME280;37112;45.892;-123.962;2023-02-21T09:28:03;101378.06;;;6.79;93.21
51067;BME280;37112;45.892;-123.962;2023-02-21T09:30:18;101372.57;;;6.83;93.22
51067;BME280;37112;45.892;-123.962;2023-02-21T09:32:35;101369.23;;;6.87;93.03
51067;BME280;37112;45.892;-123.962;2023-02-21T09:34:50;101372.63;;;6.90;92.79
51067;BME280;37112;45.892;-123.962;2023-02-21T09:37:05;101373.90;;;6.93;92.75
51067;BME280;37112;45.892;-123.962;2023-02-21T09:39:19;101368.57;;;6.95;92.30
51067;BME280;37112;45.892;-123.962;2023-02-21T09:41:34;101369.87;;;6.93;91.95
51067;BME280;37112;45.892;-123.962;2023-02-21T09:43:49;101362.05;;;6.94;92.28
51067;BME280;37112;45.892;-123.962;2023-02-21T09:46:08;101367.66;;;6.95;92.35
51067;BME280;37112;45.892;-123.962;2023-02-21T09:48:24;101373.02;;;6.98;92.03
51067;BME280;37112;45.892;-123.962;2023-02-21T09:50:43;101370.52;;;6.86;88.05
51067;BME280;37112;45.892;-123.962;2023-02-21T09:53:00;101353.11;;;6.71;88.30
51067;BME280;37112;45.892;-123.962;2023-02-21T09:55:23;101345.72;;;6.66;89.05
51067;BME280;37112;45.892;-123.962;2023-02-21T09:57:40;101339.17;;;6.63;89.43
51067;BME280;37112;45.892;-123.962;2023-02-21T09:59:53;101339.58;;;6.62;89.66
51067;BME280;37112;45.892;-123.962;2023-02-21T10:02:21;101339.59;;;6.62;89.56
51067;BME280;37112;45.892;-123.962;2023-02-21T10:04:52;101339.36;;;6.63;89.74
51067;BME280;37112;45.892;-123.962;2023-02-21T10:07:11;101333.13;;;6.68;90.36
51067;BME280;37112;45.892;-123.962;2023-02-21T10:09:34;101326.93;;;6.73;90.44
51067;BME280;37112;45.892;-123.962;2023-02-21T10:11:57;101326.67;;;6.79;90.44
51067;BME280;37112;45.892;-123.962;2023-02-21T10:14:22;101326.80;;;6.85;90.22
51067;BME280;37112;45.892;-123.962;2023-02-21T10:16:41;101316.65;;;6.87;90.11
51067;BME280;37112;45.892;-123.962;2023-02-21T10:19:04;101318.27;;;6.90;90.26
51067;BME280;37112;45.892;-123.962;2023-02-21T10:21:24;101319.52;;;6.94;90.34
51067;BME280;37112;45.892;-123.962;2023-02-21T10:23:42;101314.26;;;6.97;90.47
51067;BME280;37112;45.892;-123.962;2023-02-21T10:26:00;101313.02;;;7.02;90.57
51067;BME280;37112;45.892;-123.962;2023-02-21T10:28:19;101326.46;;;7.01;88.50
51067;BME280;37112;45.892;-123.962;2023-02-21T10:30:34;101330.90;;;6.88;86.71
51067;BME280;37112;45.892;-123.962;2023-02-21T10:32:50;101330.46;;;6.69;86.69
51067;BME280;37112;45.892;-123.962;2023-02-21T10:35:04;101330.81;;;6.43;84.39
51067;BME280;37112;45.892;-123.962;2023-02-21T10:37:30;101310.81;;;6.14;85.32
51067;BME280;37112;45.892;-123.962;2023-02-21T10:39:48;101300.61;;;6.00;86.10
51067;BME280;37112;45.892;-123.962;2023-02-21T10:42:01;101289.23;;;5.94;86.89
51067;BME280;37112;45.892;-123.962;2023-02-21T10:44:20;101291.58;;;5.93;87.68
51067;BME280;37112;45.892;-123.962;2023-02-21T10:46:39;101290.73;;;5.96;88.54
51067;BME280;37112;45.892;-123.962;2023-02-21T10:49:04;101278.36;;;6.01;89.30
51067;BME280;37112;45.892;-123.962;2023-02-21T10:51:31;101266.85;;;6.06;89.66
51067;BME280;37112;45.892;-123.962;2023-02-21T10:53:45;101312.98;;;6.13;90.37
51067;BME280;37112;45.892;-123.962;2023-02-21T10:58:41;101277.95;;;5.89;88.95
51067;BME280;37112;45.892;-123.962;2023-02-21T11:00:56;101272.19;;;5.82;90.06
51067;BME280;37112;45.892;-123.962;2023-02-21T11:03:24;101267.41;;;5.82;91.13
51067;BME280;37112;45.892;-123.962;2023-02-21T11:05:39;101259.39;;;5.90;92.54
51067;BME280;37112;45.892;-123.962;2023-02-21T11:08:00;101252.54;;;5.95;92.47
51067;BME280;37112;45.892;-123.962;2023-02-21T11:10:30;101252.02;;;5.98;92.62
51067;BME280;37112;45.892;-123.962;2023-02-21T11:12:44;101250.96;;;6.03;93.28
51067;BME280;37112;45.892;-123.962;2023-02-21T11:15:20;101242.78;;;6.09;93.62
51067;BME280;37112;45.892;-123.962;2023-02-21T11:17:34;101245.77;;;6.13;93.08
51067;BME280;37112;45.892;-123.962;2023-02-21T11:19:49;101242.39;;;6.14;92.68
51067;BME280;37112;45.892;-123.962;2023-02-21T11:22:04;101233.71;;;6.11;91.43
51067;BME280;37112;45.892;-123.962;2023-02-21T11:24:19;101226.73;;;6.09;91.23
51067;BME280;37112;45.892;-123.962;2023-02-21T11:26:34;101225.36;;;6.08;91.21
51067;BME280;37112;45.892;-123.962;2023-02-21T11:28:49;101225.94;;;6.11;91.35
51067;BME280;37112;45.892;-123.962;2023-02-21T11:31:12;101221.80;;;6.13;91.05
51067;BME280;37112;45.892;-123.962;2023-02-21T11:33:28;101219.89;;;6.17;90.59
51067;BME280;37112;45.892;-123.962;2023-02-21T11:35:46;101218.66;;;6.21;90.59
51067;BME280;37112;45.892;-123.962;2023-02-21T11:38:01;101211.88;;;6.27;90.73
51067;BME280;37112;45.892;-123.962;2023-02-21T11:40:27;101209.55;;;6.33;90.02
51067;BME280;37112;45.892;-123.962;2023-02-21T11:42:42;101197.19;;;6.36;88.69
51067;BME280;37112;45.892;-123.962;2023-02-21T11:45:12;101190.70;;;6.40;89.03
51067;BME280;37112;45.892;-123.962;2023-02-21T11:47:36;101186.80;;;6.41;88.93
51067;BME280;37112;45.892;-123.962;2023-02-21T11:50:00;101187.92;;;6.39;89.65
51067;BME280;37112;45.892;-123.962;2023-02-21T11:52:17;101192.61;;;6.36;89.39
51067;BME280;37112;45.892;-123.962;2023-02-21T11:54:32;101186.60;;;6.33;89.77
51067;BME280;37112;45.892;-123.962;2023-02-21T11:56:52;101179.33;;;6.30;89.88
51067;BME280;37112;45.892;-123.962;2023-02-21T11:59:15;101174.92;;;6.29;90.13